createdAt,value
2018-07-04T00:00:49.614Z,18.49
2018-07-04T00:03:40.614Z,18.66
2018-07-04T00:06:33.782Z,18.71
2018-07-04T00:09:28.274Z,18.52
2018-07-04T00:12:16.797Z,18.08
2018-07-04T00:15:09.124Z,18.46
2018-07-04T00:17:59.429Z,17.97
2018-07-04T00:20:48.346Z,18.14
2018-07-04T00:23:36.878Z,18.31
2018-07-04T00:26:23.883Z,18.40
2018-07-04T00:29:15.957Z,18.20
2018-07-04T00:32:06.223Z,17.93
2018-07-04T00:34:55.092Z,17.90
2018-07-04T00:37:42.668Z,18.18
2018-07-04T00:40:30.453Z,18.28
2018-07-04T00:43:21.129Z,18.26
2018-07-04T00:46:16.845Z,18.08
2018-07-04T00:49:05.277Z,17.97
2018-07-04T00:52:03.267Z,17.94
2018-07-04T00:54:51.031Z,17.59
2018-07-04T00:57:39.893Z,18.21
2018-07-04T01:00:26.380Z,17.93
2018-07-04T01:03:14.118Z,17.81
2018-07-04T01:06:00.816Z,18.15
2018-07-04T01:08:47.748Z,17.85
2018-07-04T01:11:36.207Z,17.66
2018-07-04T01:14:24.156Z,17.33
2018-07-04T01:17:12.870Z,17.40
2018-07-04T01:20:04.623Z,17.68
2018-07-04T01:22:53.024Z,17.45
2018-07-04T01:25:40.567Z,17.70
2018-07-04T01:28:32.342Z,17.66
2018-07-04T01:31:21.503Z,17.90
2018-07-04T01:34:10.831Z,17.51
2018-07-04T01:36:57.704Z,17.48
2018-07-04T01:39:45.888Z,17.51
2018-07-04T01:42:33.546Z,17.50
2018-07-04T01:45:21.450Z,17.42
2018-07-04T01:48:09.524Z,17.45
2018-07-04T01:50:58.010Z,17.79
2018-07-04T01:53:46.191Z,17.74
2018-07-04T01:56:34.072Z,17.58
2018-07-04T01:59:25.882Z,17.46
2018-07-04T02:02:18.615Z,17.54
2018-07-04T02:05:09.199Z,17.91
2018-07-04T02:07:56.551Z,17.80
2018-07-04T02:13:41.521Z,18.10
2018-07-04T02:16:29.304Z,17.90
2018-07-04T02:19:23.004Z,17.63
2018-07-04T02:22:10.214Z,17.66
2018-07-04T02:25:04.243Z,17.72
2018-07-04T02:27:53.172Z,17.52
2018-07-04T02:30:41.152Z,17.46
2018-07-04T02:33:29.812Z,17.45
2018-07-04T02:36:20.869Z,17.00
2018-07-04T02:39:08.097Z,17.27
2018-07-04T02:41:59.265Z,17.39
2018-07-04T02:44:48.076Z,17.41
2018-07-04T02:47:40.012Z,17.52
2018-07-04T02:50:26.754Z,17.51
2018-07-04T02:53:16.763Z,17.44
2018-07-04T02:56:07.766Z,17.04
2018-07-04T02:58:56.942Z,17.25
2018-07-04T03:01:46.232Z,17.37
2018-07-04T03:04:32.559Z,17.45
2018-07-04T03:07:18.967Z,17.46
2018-07-04T03:10:05.258Z,17.58
2018-07-04T03:12:51.658Z,17.35
2018-07-04T03:15:38.025Z,17.39
2018-07-04T03:18:24.382Z,17.24
2018-07-04T03:21:10.761Z,17.59
2018-07-04T03:23:57.154Z,17.52
2018-07-04T03:26:43.403Z,17.73
2018-07-04T03:29:29.761Z,17.78
2018-07-04T03:32:16.197Z,17.53
2018-07-04T03:35:02.346Z,17.92
2018-07-04T03:37:48.706Z,17.85
2018-07-04T03:40:34.934Z,18.13
2018-07-04T03:43:21.316Z,18.43
2018-07-04T03:46:07.661Z,18.34
2018-07-04T03:48:54.029Z,18.19
2018-07-04T03:51:40.401Z,18.13
2018-07-04T03:54:26.539Z,18.46
2018-07-04T03:57:12.938Z,18.57
2018-07-04T03:59:59.194Z,18.93
2018-07-04T04:02:45.578Z,19.15
2018-07-04T04:05:31.991Z,19.31
2018-07-04T04:08:18.341Z,19.38
2018-07-04T04:11:04.689Z,19.18
2018-07-04T04:13:51.024Z,19.31
2018-07-04T04:16:37.363Z,18.93
2018-07-04T04:19:31.109Z,19.49
2018-07-04T04:22:17.493Z,19.29
2018-07-04T04:25:03.877Z,19.63
2018-07-04T04:27:50.259Z,19.70
2018-07-04T04:30:36.730Z,19.51
2018-07-04T04:33:23.081Z,19.86
2018-07-04T04:36:09.331Z,19.80
2018-07-04T04:38:55.711Z,19.78
2018-07-04T04:41:42.101Z,20.34
2018-07-04T04:44:28.513Z,20.33
2018-07-04T04:47:14.781Z,20.69
2018-07-04T04:50:01.180Z,20.89
2018-07-04T04:52:47.562Z,20.82
2018-07-04T04:55:33.925Z,21.11
2018-07-04T04:58:20.286Z,21.19
2018-07-04T05:01:06.666Z,21.05
2018-07-04T05:03:53.053Z,21.46
2018-07-04T05:06:39.390Z,20.76
2018-07-04T05:09:25.786Z,21.73
2018-07-04T05:12:12.111Z,21.91
2018-07-04T05:14:58.654Z,22.26
2018-07-04T05:17:44.999Z,22.30
2018-07-04T05:20:31.369Z,23.25
2018-07-04T05:23:17.733Z,24.49
2018-07-04T05:26:03.965Z,25.99
2018-07-04T05:28:50.382Z,25.41
2018-07-04T05:31:36.768Z,24.96
2018-07-04T05:34:23.100Z,25.74
2018-07-04T05:37:09.496Z,26.07
2018-07-04T05:39:56.174Z,26.27
2018-07-04T05:42:42.591Z,26.10
2018-07-04T05:45:29.173Z,25.75
2018-07-04T05:48:15.593Z,25.45
2018-07-04T05:51:01.896Z,25.50
2018-07-04T05:53:48.250Z,24.89
2018-07-04T05:56:34.575Z,24.85
2018-07-04T05:59:20.958Z,25.15
2018-07-04T06:02:07.355Z,25.39
2018-07-04T06:04:53.652Z,25.48
2018-07-04T06:07:40.016Z,25.71
2018-07-04T06:10:26.377Z,25.38
2018-07-04T06:13:12.654Z,25.62
2018-07-04T06:15:59.014Z,25.71
2018-07-04T06:18:45.346Z,25.32
2018-07-04T06:21:32.442Z,25.80
2018-07-04T06:24:18.827Z,25.59
2018-07-04T06:27:05.249Z,25.39
2018-07-04T06:29:51.490Z,25.99
2018-07-04T06:32:37.855Z,25.90
2018-07-04T06:35:24.258Z,26.25
2018-07-04T06:37:58.161Z,26.50
2018-07-04T06:40:25.969Z,26.72
2018-07-04T06:42:53.762Z,26.39
2018-07-04T06:45:21.569Z,26.79
2018-07-04T06:47:49.367Z,26.85
2018-07-04T06:50:17.180Z,26.72
2018-07-04T06:52:45.041Z,27.18
2018-07-04T06:55:12.871Z,27.05
2018-07-04T06:57:40.669Z,27.64
2018-07-04T07:00:08.469Z,28.33
2018-07-04T07:02:36.281Z,29.23
2018-07-04T07:05:16.302Z,29.80
2018-07-04T07:08:02.665Z,31.70
2018-07-04T07:10:48.941Z,30.37
2018-07-04T07:13:35.317Z,31.49
2018-07-04T07:16:21.692Z,32.11
2018-07-04T07:19:07.919Z,33.91
2018-07-04T07:21:54.619Z,32.89
2018-07-04T07:24:40.955Z,34.01
2018-07-04T07:27:27.271Z,35.31
2018-07-04T07:30:13.510Z,36.20
2018-07-04T07:32:59.934Z,38.01
2018-07-04T07:35:47.319Z,38.92
2018-07-04T07:38:33.683Z,38.46
2018-07-04T07:41:20.087Z,38.36
2018-07-04T07:44:07.585Z,37.88
2018-07-04T07:46:54.029Z,38.94
2018-07-04T07:49:40.430Z,38.72
2018-07-04T07:52:26.795Z,41.73
2018-07-04T07:55:13.642Z,38.74
2018-07-04T07:57:59.913Z,38.65
2018-07-04T08:00:46.130Z,38.64
2018-07-04T08:03:32.505Z,38.06
2018-07-04T08:06:18.912Z,35.72
2018-07-04T08:09:05.339Z,36.07
2018-07-04T08:11:51.719Z,35.05
2018-07-04T08:14:38.376Z,35.31
2018-07-04T08:17:24.769Z,34.64
2018-07-04T08:20:11.042Z,34.75
2018-07-04T08:22:57.403Z,34.37
2018-07-04T08:25:43.780Z,34.59
2018-07-04T08:28:30.091Z,34.50
2018-07-04T08:31:16.314Z,34.00
2018-07-04T08:34:02.707Z,34.29
2018-07-04T08:36:49.077Z,33.68
2018-07-04T08:39:35.521Z,34.04
2018-07-04T08:42:21.937Z,33.79
2018-07-04T08:45:08.330Z,33.79
2018-07-04T08:47:54.681Z,33.55
2018-07-04T08:50:41.124Z,34.10
2018-07-04T08:53:27.359Z,34.01
2018-07-04T08:56:13.723Z,34.32
2018-07-04T08:59:00.094Z,33.92
2018-07-04T09:01:46.442Z,34.64
2018-07-04T09:04:33.160Z,34.43
2018-07-04T09:07:19.530Z,34.07
2018-07-04T09:10:05.931Z,34.00
2018-07-04T09:12:52.274Z,34.40
2018-07-04T09:15:38.680Z,34.84
2018-07-04T09:18:25.049Z,35.78
2018-07-04T09:21:11.304Z,35.77
2018-07-04T09:23:57.696Z,34.92
2018-07-04T09:26:44.207Z,35.19
2018-07-04T09:29:30.620Z,36.30
2018-07-04T09:32:16.978Z,36.93
2018-07-04T09:35:03.389Z,38.34
2018-07-04T09:37:49.804Z,37.60
2018-07-04T09:40:36.223Z,37.51
2018-07-04T09:43:22.615Z,37.31
2018-07-04T09:46:09.225Z,37.67
2018-07-04T09:48:55.641Z,37.41
2018-07-04T09:51:42.017Z,37.31
2018-07-04T09:54:28.417Z,38.01
2018-07-04T09:57:14.834Z,37.84
2018-07-04T10:00:01.283Z,38.20
2018-07-04T10:02:47.517Z,39.56
2018-07-04T10:05:33.905Z,40.54
2018-07-04T10:08:20.269Z,41.96
2018-07-04T10:11:06.638Z,41.02
2018-07-04T10:13:53.059Z,40.54
2018-07-04T10:16:39.533Z,39.89
2018-07-04T10:19:25.808Z,39.74
2018-07-04T10:22:12.265Z,41.89
2018-07-04T10:24:58.683Z,41.57
2018-07-04T10:27:45.149Z,41.68
2018-07-04T10:30:31.698Z,40.23
2018-07-04T10:33:18.113Z,40.72
2018-07-04T10:36:04.451Z,40.66
2018-07-04T10:38:50.801Z,38.25
2018-07-04T10:41:37.177Z,37.29
2018-07-04T10:44:23.596Z,36.41
2018-07-04T10:47:10.062Z,37.54
2018-07-04T10:49:56.433Z,35.51
2018-07-04T10:52:43.018Z,36.97
2018-07-04T10:55:29.391Z,37.52
2018-07-04T10:58:15.913Z,37.17
2018-07-04T11:01:02.203Z,36.05
2018-07-04T11:03:48.599Z,36.53
2018-07-04T11:06:34.868Z,36.56
2018-07-04T11:09:21.289Z,36.70
2018-07-04T11:12:07.826Z,36.40
2018-07-04T11:14:54.093Z,36.15
2018-07-04T11:17:41.463Z,35.14
2018-07-04T11:20:27.857Z,35.40
2018-07-04T11:23:14.316Z,35.82
2018-07-04T11:26:01.678Z,35.25
2018-07-04T11:28:47.933Z,35.84
2018-07-04T11:31:34.290Z,36.09
2018-07-04T11:34:20.681Z,36.19
2018-07-04T11:37:07.191Z,36.39
2018-07-04T11:39:53.583Z,35.99
2018-07-04T11:42:39.811Z,35.51
2018-07-04T11:45:26.283Z,35.46
2018-07-04T11:48:00.550Z,35.17
2018-07-04T11:50:28.425Z,35.10
2018-07-04T11:52:56.240Z,34.92
2018-07-04T11:55:24.087Z,34.32
2018-07-04T11:57:51.937Z,35.53
2018-07-04T12:00:19.749Z,34.34
2018-07-04T12:02:47.551Z,35.11
2018-07-04T12:05:27.744Z,35.23
2018-07-04T12:08:01.658Z,35.08
2018-07-04T12:10:29.489Z,34.90
2018-07-04T12:12:57.302Z,34.01
2018-07-04T12:15:25.136Z,34.67
2018-07-04T12:17:52.972Z,35.13
2018-07-04T12:20:20.794Z,34.91
2018-07-04T12:22:48.647Z,35.24
2018-07-04T12:25:16.471Z,34.53
2018-07-04T12:27:44.294Z,34.79
2018-07-04T12:30:12.151Z,34.49
2018-07-04T12:32:39.967Z,34.08
2018-07-04T12:35:07.822Z,34.63
2018-07-04T12:37:35.717Z,35.06
2018-07-04T12:40:03.543Z,35.72
2018-07-04T12:42:31.374Z,35.70
2018-07-04T12:44:59.217Z,35.37
2018-07-04T12:47:27.024Z,35.91
2018-07-04T12:49:54.908Z,35.96
2018-07-04T12:52:22.732Z,35.34
2018-07-04T12:55:02.974Z,35.50
2018-07-04T12:57:49.389Z,36.00
2018-07-04T13:00:35.808Z,35.54
2018-07-04T13:03:22.276Z,34.80
2018-07-04T13:06:08.654Z,34.97
2018-07-04T13:08:54.960Z,34.48
2018-07-04T13:11:41.275Z,34.49
2018-07-04T13:14:27.860Z,34.36
2018-07-04T13:17:14.132Z,33.72
2018-07-04T13:20:00.652Z,33.40
2018-07-04T13:22:46.962Z,33.17
2018-07-04T13:25:33.248Z,32.88
2018-07-04T13:28:19.517Z,33.11
2018-07-04T13:31:05.962Z,33.18
2018-07-04T13:33:52.279Z,33.64
2018-07-04T13:36:38.755Z,34.09
2018-07-04T13:39:25.021Z,33.71
2018-07-04T13:42:11.417Z,34.37
2018-07-04T13:44:58.000Z,35.09
2018-07-04T13:47:44.244Z,34.59
2018-07-04T13:50:30.702Z,35.50
2018-07-04T13:53:16.951Z,34.42
2018-07-04T13:56:03.367Z,34.46
2018-07-04T13:58:49.704Z,34.15
2018-07-04T14:01:36.094Z,33.88
2018-07-04T14:04:22.518Z,33.12
2018-07-04T14:07:08.913Z,33.33
2018-07-04T14:09:55.279Z,33.40
2018-07-04T14:12:41.673Z,33.90
2018-07-04T14:15:27.970Z,34.11
2018-07-04T14:18:14.310Z,34.50
2018-07-04T14:21:00.630Z,34.33
2018-07-04T14:23:47.038Z,33.58
2018-07-04T14:26:33.518Z,33.26
2018-07-04T14:29:19.813Z,32.45
2018-07-04T14:32:06.517Z,32.58
2018-07-04T14:34:53.533Z,33.11
2018-07-04T14:37:39.799Z,32.97
2018-07-04T14:40:26.233Z,33.11
2018-07-04T14:43:12.596Z,33.13
2018-07-04T14:45:58.753Z,32.92
2018-07-04T14:48:45.130Z,32.97
2018-07-04T14:51:31.275Z,32.74
2018-07-04T14:54:17.698Z,32.86
2018-07-04T14:57:03.965Z,33.00
2018-07-04T14:59:50.205Z,33.03
2018-07-04T15:02:36.561Z,33.02
2018-07-04T15:05:23.018Z,33.05
2018-07-04T15:08:09.266Z,33.16
2018-07-04T15:10:55.611Z,33.10
2018-07-04T15:13:42.043Z,32.61
2018-07-04T15:16:28.339Z,32.29
2018-07-04T15:19:14.550Z,31.87
2018-07-04T15:22:00.871Z,31.66
2018-07-04T15:24:47.205Z,30.07
2018-07-04T15:27:33.679Z,29.81
2018-07-04T15:30:19.982Z,29.17
2018-07-04T15:33:06.354Z,29.10
2018-07-04T15:35:52.647Z,29.08
2018-07-04T15:38:39.001Z,28.89
2018-07-04T15:41:25.383Z,28.70
2018-07-04T15:44:11.754Z,27.46
2018-07-04T15:46:58.169Z,25.90
2018-07-04T15:49:50.970Z,25.45
2018-07-04T15:52:37.188Z,24.90
2018-07-04T15:55:23.557Z,25.28
2018-07-04T15:58:10.006Z,25.34
2018-07-04T16:00:56.375Z,25.78
2018-07-04T16:03:42.770Z,25.81
2018-07-04T16:06:29.202Z,25.62
2018-07-04T16:09:15.416Z,24.90
2018-07-04T16:12:01.775Z,24.56
2018-07-04T16:14:48.132Z,25.30
2018-07-04T16:17:34.549Z,25.60
2018-07-04T16:20:20.849Z,25.79
2018-07-04T16:23:07.255Z,25.90
2018-07-04T16:25:53.538Z,26.05
2018-07-04T16:28:39.958Z,25.94
2018-07-04T16:31:26.206Z,25.97
2018-07-04T16:34:12.565Z,26.09
2018-07-04T16:36:59.070Z,26.15
2018-07-04T16:39:45.297Z,26.42
2018-07-04T16:42:31.714Z,26.06
2018-07-04T16:45:18.166Z,26.27
2018-07-04T16:48:04.799Z,25.70
2018-07-04T16:50:51.213Z,25.55
2018-07-04T16:53:37.633Z,25.12
2018-07-04T16:56:24.033Z,25.40
2018-07-04T16:59:10.632Z,25.50
2018-07-04T17:01:56.995Z,25.67
2018-07-04T17:04:43.407Z,25.32
2018-07-04T17:07:29.959Z,25.29
2018-07-04T17:10:16.301Z,24.96
2018-07-04T17:13:02.533Z,24.85
2018-07-04T17:15:48.931Z,25.09
2018-07-04T17:18:35.334Z,25.22
2018-07-04T17:21:21.714Z,25.63
2018-07-04T17:24:08.094Z,26.38
2018-07-04T17:26:54.462Z,26.54
2018-07-04T17:29:40.878Z,26.61
2018-07-04T17:32:27.323Z,26.77
2018-07-04T17:35:13.606Z,26.61
2018-07-04T17:37:59.816Z,26.84
2018-07-04T17:40:46.195Z,26.73
2018-07-04T17:43:32.577Z,26.29
2018-07-04T17:46:19.070Z,26.89
2018-07-04T17:49:05.434Z,26.92
2018-07-04T17:51:51.832Z,26.56
2018-07-04T17:54:38.128Z,26.60
2018-07-04T17:57:24.615Z,26.82
2018-07-04T18:00:10.889Z,26.38
2018-07-04T18:02:57.317Z,26.29
2018-07-04T18:05:43.714Z,26.38
2018-07-04T18:08:30.061Z,26.05
2018-07-04T18:11:16.503Z,25.92
2018-07-04T18:14:02.763Z,25.79
2018-07-04T18:16:49.137Z,25.72
2018-07-04T18:19:35.347Z,24.90
2018-07-04T18:22:21.780Z,24.88
2018-07-04T18:25:08.149Z,24.81
2018-07-04T18:27:54.291Z,24.89
2018-07-04T18:30:40.638Z,24.92
2018-07-04T18:33:26.951Z,24.86
2018-07-04T18:36:13.384Z,24.88
2018-07-04T18:38:59.813Z,24.82
2018-07-04T18:41:46.217Z,24.43
2018-07-04T18:44:32.558Z,24.41
2018-07-04T18:47:18.887Z,24.41
2018-07-04T18:50:05.271Z,24.28
2018-07-04T18:52:52.028Z,24.09
2018-07-04T18:55:38.302Z,24.05
2018-07-04T18:58:24.593Z,24.17
2018-07-04T19:01:10.940Z,24.05
2018-07-04T19:03:57.420Z,24.43
2018-07-04T19:06:44.714Z,24.08
2018-07-04T19:09:31.099Z,24.04
2018-07-04T19:12:17.510Z,23.61
2018-07-04T19:15:03.824Z,23.49
2018-07-04T19:17:50.226Z,23.96
2018-07-04T19:20:36.594Z,23.87
2018-07-04T19:23:23.008Z,23.91
2018-07-04T19:26:09.443Z,23.21
2018-07-04T19:28:55.821Z,23.06
2018-07-04T19:31:42.090Z,23.10
2018-07-04T19:34:28.447Z,23.02
2018-07-04T19:37:14.837Z,23.26
2018-07-04T19:40:01.226Z,23.01
2018-07-04T19:42:47.680Z,23.08
2018-07-04T19:45:33.849Z,23.13
2018-07-04T19:48:20.150Z,23.36
2018-07-04T19:51:07.511Z,23.55
2018-07-04T19:53:53.906Z,23.44
2018-07-04T19:56:40.173Z,23.50
2018-07-04T19:59:26.471Z,23.48
2018-07-04T20:02:12.946Z,23.27
2018-07-04T20:04:59.332Z,23.38
2018-07-04T20:07:45.757Z,23.62
2018-07-04T20:10:32.208Z,23.51
2018-07-04T20:13:18.613Z,23.43
2018-07-04T20:16:05.044Z,23.60
2018-07-04T20:18:51.317Z,23.52
2018-07-04T20:21:37.752Z,23.21
2018-07-04T20:24:24.139Z,23.29
2018-07-04T20:27:10.488Z,23.17
2018-07-04T20:29:56.929Z,22.90
2018-07-04T20:32:43.316Z,22.78
2018-07-04T20:35:29.703Z,23.08
2018-07-04T20:38:16.145Z,23.10
2018-07-04T20:41:02.498Z,22.86
2018-07-04T20:43:48.761Z,22.49
2018-07-04T20:46:35.096Z,22.93
2018-07-04T20:49:21.519Z,23.05
2018-07-04T20:52:07.749Z,22.98
2018-07-04T20:54:54.171Z,22.79
2018-07-04T20:57:40.561Z,22.94
2018-07-04T21:00:26.997Z,22.41
2018-07-04T21:03:13.390Z,22.81
2018-07-04T21:05:59.770Z,22.52
2018-07-04T21:08:46.114Z,22.83
2018-07-04T21:11:32.465Z,22.52
2018-07-04T21:14:18.934Z,22.65
2018-07-04T21:17:05.141Z,22.29
2018-07-04T21:19:51.464Z,22.37
2018-07-04T21:22:37.881Z,22.62
2018-07-04T21:25:24.277Z,22.55
2018-07-04T21:28:10.637Z,22.19
2018-07-04T21:30:57.013Z,22.53
2018-07-04T21:33:43.413Z,22.19
2018-07-04T21:36:29.759Z,22.43
2018-07-04T21:39:16.106Z,22.33
2018-07-04T21:42:02.518Z,22.18
2018-07-04T21:44:48.801Z,22.16
2018-07-04T21:47:35.239Z,22.04
2018-07-04T21:50:21.600Z,21.85
2018-07-04T21:53:07.997Z,22.09
2018-07-04T21:55:54.365Z,22.15
2018-07-04T21:58:40.741Z,22.11
2018-07-04T22:01:27.137Z,21.69
2018-07-04T22:04:13.668Z,21.61
2018-07-04T22:07:00.002Z,21.94
2018-07-04T22:09:46.357Z,21.77
2018-07-04T22:12:32.766Z,21.86
2018-07-04T22:15:19.177Z,21.52
2018-07-04T22:18:05.399Z,21.80
2018-07-04T22:20:51.778Z,21.60
2018-07-04T22:23:38.141Z,21.74
2018-07-04T22:26:24.461Z,21.79
2018-07-04T22:29:10.846Z,21.76
2018-07-04T22:31:57.201Z,21.75
2018-07-04T22:34:43.592Z,21.73
2018-07-04T22:37:29.990Z,22.14
2018-07-04T22:40:16.344Z,21.56
2018-07-04T22:43:02.692Z,21.56
2018-07-04T22:45:49.069Z,21.71
2018-07-04T22:48:35.437Z,21.79
2018-07-04T22:51:21.843Z,21.58
2018-07-04T22:54:08.244Z,21.65
2018-07-04T22:56:54.614Z,21.40
2018-07-04T22:59:40.893Z,21.58
2018-07-04T23:02:27.313Z,21.76
2018-07-04T23:05:13.762Z,21.48
2018-07-04T23:08:00.294Z,21.66
2018-07-04T23:10:46.686Z,21.69
2018-07-04T23:13:33.038Z,21.62
2018-07-04T23:16:19.484Z,21.07
2018-07-04T23:19:05.881Z,21.24
2018-07-04T23:21:52.274Z,21.45
2018-07-04T23:24:38.671Z,21.33
2018-07-04T23:27:25.166Z,21.19
2018-07-04T23:30:11.638Z,20.92
2018-07-04T23:32:57.857Z,21.10
2018-07-04T23:35:44.227Z,21.06
2018-07-04T23:38:30.605Z,21.35
2018-07-04T23:41:16.968Z,21.33
2018-07-04T23:44:03.297Z,20.86
2018-07-04T23:46:49.717Z,21.12
2018-07-04T23:49:36.053Z,21.24
2018-07-04T23:52:22.421Z,21.53
2018-07-04T23:55:08.792Z,21.26
2018-07-04T23:57:55.168Z,21.42
